sensor_id;sensor_type;location;lat;lon;timestamp;P1;durP1;ratioP1;P2;durP2;ratioP2
75156;SDS011;63736;50.076;8.198;2023-02-26T00:01:18;1272.95;;;718.60;;
75156;SDS011;63736;50.076;8.198;2023-02-26T00:03:49;1102.45;;;745.60;;
75156;SDS011;63736;50.076;8.198;2023-02-26T00:06:16;1153.20;;;705.15;;
75156;SDS011;63736;50.076;8.198;2023-02-26T00:11:07;1304.00;;;713.23;;
75156;SDS011;63736;50.076;8.198;2023-02-26T00:13:38;1482.70;;;777.53;;
75156;SDS011;63736;50.076;8.198;2023-02-26T00:16:08;1571.55;;;766.80;;
75156;SDS011;63736;50.076;8.198;2023-02-26T00:21:05;1999.90;;;674.90;;
75156;SDS011;63736;50.076;8.198;2023-02-26T00:23:31;1043.65;;;735.28;;
75156;SDS011;63736;50.076;8.198;2023-02-26T00:25:57;1999.90;;;697.67;;
75156;SDS011;63736;50.076;8.198;2023-02-26T00:28:22;1151.03;;;313.08;;
75156;SDS011;63736;50.076;8.198;2023-02-26T00:30:48;504.70;;;76.87;;
75156;SDS011;63736;50.076;8.198;2023-02-26T00:33:13;351.75;;;49.97;;
75156;SDS011;63736;50.076;8.198;2023-02-26T00:35:39;349.23;;;41.13;;
75156;SDS011;63736;50.076;8.198;2023-02-26T00:38:05;301.70;;;32.10;;
75156;SDS011;63736;50.076;8.198;2023-02-26T00:40:35;354.52;;;46.95;;
75156;SDS011;63736;50.076;8.198;2023-02-26T00:43:02;372.58;;;61.58;;
75156;SDS011;63736;50.076;8.198;2023-02-26T00:45:30;380.33;;;59.30;;
75156;SDS011;63736;50.076;8.198;2023-02-26T00:50:24;385.63;;;60.63;;
75156;SDS011;63736;50.076;8.198;2023-02-26T00:55:40;376.98;;;63.25;;
75156;SDS011;63736;50.076;8.198;2023-02-26T00:58:05;382.93;;;61.57;;
75156;SDS011;63736;50.076;8.198;2023-02-26T01:00:31;384.80;;;63.13;;
75156;SDS011;63736;50.076;8.198;2023-02-26T01:02:56;380.63;;;59.22;;
75156;SDS011;63736;50.076;8.198;2023-02-26T01:05:22;383.07;;;59.80;;
75156;SDS011;63736;50.076;8.198;2023-02-26T01:07:53;384.20;;;60.93;;
75156;SDS011;63736;50.076;8.198;2023-02-26T01:10:29;385.95;;;62.53;;
75156;SDS011;63736;50.076;8.198;2023-02-26T01:12:55;385.48;;;61.58;;
75156;SDS011;63736;50.076;8.198;2023-02-26T01:15:21;386.37;;;62.03;;
75156;SDS011;63736;50.076;8.198;2023-02-26T01:20:53;384.10;;;60.78;;
75156;SDS011;63736;50.076;8.198;2023-02-26T01:23:26;378.13;;;65.95;;
75156;SDS011;63736;50.076;8.198;2023-02-26T01:25:56;377.30;;;59.60;;
75156;SDS011;63736;50.076;8.198;2023-02-26T01:28:24;383.95;;;62.60;;
75156;SDS011;63736;50.076;8.198;2023-02-26T01:30:54;379.77;;;58.47;;
75156;SDS011;63736;50.076;8.198;2023-02-26T01:33:26;379.45;;;60.05;;
75156;SDS011;63736;50.076;8.198;2023-02-26T01:38:32;376.30;;;54.88;;
75156;SDS011;63736;50.076;8.198;2023-02-26T01:41:12;376.00;;;54.72;;
75156;SDS011;63736;50.076;8.198;2023-02-26T01:49:26;355.20;;;48.38;;
75156;SDS011;63736;50.076;8.198;2023-02-26T01:51:55;360.30;;;45.78;;
75156;SDS011;63736;50.076;8.198;2023-02-26T01:54:22;350.23;;;42.40;;
75156;SDS011;63736;50.076;8.198;2023-02-26T01:56:58;286.83;;;28.58;;
75156;SDS011;63736;50.076;8.198;2023-02-26T01:59:42;1021.40;;;827.43;;
75156;SDS011;63736;50.076;8.198;2023-02-26T02:02:10;1037.18;;;708.35;;
75156;SDS011;63736;50.076;8.198;2023-02-26T02:04:38;1479.87;;;782.07;;
75156;SDS011;63736;50.076;8.198;2023-02-26T02:07:06;1913.65;;;711.15;;
75156;SDS011;63736;50.076;8.198;2023-02-26T02:09:31;1084.15;;;756.20;;
75156;SDS011;63736;50.076;8.198;2023-02-26T02:12:06;1317.27;;;789.60;;
75156;SDS011;63736;50.076;8.198;2023-02-26T02:14:42;1133.95;;;778.75;;
75156;SDS011;63736;50.076;8.198;2023-02-26T02:17:27;1260.65;;;627.95;;
75156;SDS011;63736;50.076;8.198;2023-02-26T02:20:11;1123.93;;;738.95;;
75156;SDS011;63736;50.076;8.198;2023-02-26T02:25:34;1974.70;;;542.97;;
75156;SDS011;63736;50.076;8.198;2023-02-26T02:36:30;1817.00;;;486.65;;
75156;SDS011;63736;50.076;8.198;2023-02-26T02:39:03;1042.25;;;739.65;;
75156;SDS011;63736;50.076;8.198;2023-02-26T02:41:35;1126.47;;;718.85;;
75156;SDS011;63736;50.076;8.198;2023-02-26T02:44:05;963.20;;;800.28;;
75156;SDS011;63736;50.076;8.198;2023-02-26T02:46:35;1107.60;;;773.50;;
75156;SDS011;63736;50.076;8.198;2023-02-26T02:49:07;1145.73;;;733.23;;
75156;SDS011;63736;50.076;8.198;2023-02-26T02:51:41;843.57;;;432.37;;
75156;SDS011;63736;50.076;8.198;2023-02-26T02:54:38;1113.32;;;897.80;;
75156;SDS011;63736;50.076;8.198;2023-02-26T02:57:19;1182.15;;;893.22;;
75156;SDS011;63736;50.076;8.198;2023-02-26T02:59:50;1204.05;;;881.78;;
75156;SDS011;63736;50.076;8.198;2023-02-26T03:04:45;909.78;;;811.63;;
75156;SDS011;63736;50.076;8.198;2023-02-26T03:07:10;1077.45;;;763.85;;
75156;SDS011;63736;50.076;8.198;2023-02-26T03:09:36;937.37;;;812.40;;
75156;SDS011;63736;50.076;8.198;2023-02-26T03:12:01;912.90;;;815.30;;
75156;SDS011;63736;50.076;8.198;2023-02-26T03:14:27;1078.75;;;755.13;;
75156;SDS011;63736;50.076;8.198;2023-02-26T03:19:41;961.13;;;808.30;;
75156;SDS011;63736;50.076;8.198;2023-02-26T03:22:36;1780.93;;;544.20;;
75156;SDS011;63736;50.076;8.198;2023-02-26T03:25:23;1093.50;;;752.10;;
75156;SDS011;63736;50.076;8.198;2023-02-26T03:28:03;926.95;;;222.75;;
75156;SDS011;63736;50.076;8.198;2023-02-26T03:30:57;1100.72;;;786.92;;
75156;SDS011;63736;50.076;8.198;2023-02-26T03:33:37;1238.75;;;493.38;;
75156;SDS011;63736;50.076;8.198;2023-02-26T03:38:50;395.30;;;74.75;;
75156;SDS011;63736;50.076;8.198;2023-02-26T03:41:32;989.03;;;783.57;;
75156;SDS011;63736;50.076;8.198;2023-02-26T03:44:04;1080.70;;;780.03;;
75156;SDS011;63736;50.076;8.198;2023-02-26T03:49:08;1999.90;;;762.60;;
75156;SDS011;63736;50.076;8.198;2023-02-26T03:54:09;1999.90;;;584.80;;
75156;SDS011;63736;50.076;8.198;2023-02-26T03:56:43;1032.75;;;835.70;;
75156;SDS011;63736;50.076;8.198;2023-02-26T03:59:10;1102.55;;;856.92;;
75156;SDS011;63736;50.076;8.198;2023-02-26T04:01:54;1136.22;;;827.70;;
75156;SDS011;63736;50.076;8.198;2023-02-26T04:04:22;1167.50;;;820.97;;
75156;SDS011;63736;50.076;8.198;2023-02-26T04:06:52;1184.00;;;817.33;;
75156;SDS011;63736;50.076;8.198;2023-02-26T04:09:19;1194.38;;;805.80;;
75156;SDS011;63736;50.076;8.198;2023-02-26T04:14:11;618.53;;;129.30;;
75156;SDS011;63736;50.076;8.198;2023-02-26T04:16:36;1082.83;;;870.03;;
75156;SDS011;63736;50.076;8.198;2023-02-26T04:19:01;1038.53;;;823.63;;
75156;SDS011;63736;50.076;8.198;2023-02-26T04:21:26;1999.90;;;552.10;;
75156;SDS011;63736;50.076;8.198;2023-02-26T04:23:52;1084.83;;;849.57;;
75156;SDS011;63736;50.076;8.198;2023-02-26T04:26:17;1155.87;;;834.47;;
75156;SDS011;63736;50.076;8.198;2023-02-26T04:28:42;1178.50;;;813.53;;
75156;SDS011;63736;50.076;8.198;2023-02-26T04:31:08;1999.90;;;757.63;;
75156;SDS011;63736;50.076;8.198;2023-02-26T04:35:59;1829.80;;;803.70;;
75156;SDS011;63736;50.076;8.198;2023-02-26T04:40:50;1999.90;;;649.80;;
75156;SDS011;63736;50.076;8.198;2023-02-26T04:43:16;1025.47;;;757.70;;
75156;SDS011;63736;50.076;8.198;2023-02-26T04:48:11;1823.18;;;750.00;;
75156;SDS011;63736;50.076;8.198;2023-02-26T04:53:01;1999.90;;;781.05;;
75156;SDS011;63736;50.076;8.198;2023-02-26T04:55:26;1000.53;;;774.27;;
75156;SDS011;63736;50.076;8.198;2023-02-26T04:57:52;1074.47;;;813.27;;
75156;SDS011;63736;50.076;8.198;2023-02-26T05:00:18;1999.90;;;727.95;;
75156;SDS011;63736;50.076;8.198;2023-02-26T05:02:44;1059.63;;;771.72;;
75156;SDS011;63736;50.076;8.198;2023-02-26T05:05:09;1118.00;;;764.13;;
75156;SDS011;63736;50.076;8.198;2023-02-26T05:09:59;1999.90;;;643.63;;
75156;SDS011;63736;50.076;8.198;2023-02-26T05:14:50;1999.90;;;615.20;;
75156;SDS011;63736;50.076;8.198;2023-02-26T05:17:15;1027.40;;;806.30;;
75156;SDS011;63736;50.076;8.198;2023-02-26T05:19:40;1090.10;;;759.67;;
75156;SDS011;63736;50.076;8.198;2023-02-26T05:22:06;1134.30;;;750.63;;
75156;SDS011;63736;50.076;8.198;2023-02-26T05:24:31;1157.67;;;746.83;;
75156;SDS011;63736;50.076;8.198;2023-02-26T05:26:56;1103.32;;;768.30;;
75156;SDS011;63736;50.076;8.198;2023-02-26T05:29:22;1112.97;;;776.30;;
75156;SDS011;63736;50.076;8.198;2023-02-26T05:31:47;1156.80;;;770.57;;
75156;SDS011;63736;50.076;8.198;2023-02-26T05:36:37;1210.07;;;768.60;;
75156;SDS011;63736;50.076;8.198;2023-02-26T05:41:28;1999.90;;;687.80;;
75156;SDS011;63736;50.076;8.198;2023-02-26T05:43:53;1037.20;;;819.83;;
75156;SDS011;63736;50.076;8.198;2023-02-26T05:46:18;1091.83;;;751.27;;
75156;SDS011;63736;50.076;8.198;2023-02-26T05:48:44;1134.20;;;744.77;;
75156;SDS011;63736;50.076;8.198;2023-02-26T05:51:09;1162.83;;;748.07;;
75156;SDS011;63736;50.076;8.198;2023-02-26T05:53:34;1174.33;;;736.53;;
75156;SDS011;63736;50.076;8.198;2023-02-26T05:56:00;1184.70;;;730.30;;
75156;SDS011;63736;50.076;8.198;2023-02-26T05:58:25;1200.57;;;733.23;;
75156;SDS011;63736;50.076;8.198;2023-02-26T06:00:51;1210.20;;;736.40;;
75156;SDS011;63736;50.076;8.198;2023-02-26T06:03:16;1151.38;;;796.40;;
75156;SDS011;63736;50.076;8.198;2023-02-26T06:08:07;454.47;;;75.87;;
75156;SDS011;63736;50.076;8.198;2023-02-26T06:10:32;397.00;;;73.87;;
75156;SDS011;63736;50.076;8.198;2023-02-26T06:12:58;347.90;;;54.50;;
75156;SDS011;63736;50.076;8.198;2023-02-26T06:15:23;343.63;;;44.33;;
75156;SDS011;63736;50.076;8.198;2023-02-26T06:17:48;382.77;;;63.33;;
75156;SDS011;63736;50.076;8.198;2023-02-26T06:20:13;371.17;;;67.03;;
75156;SDS011;63736;50.076;8.198;2023-02-26T06:22:39;390.67;;;61.63;;
75156;SDS011;63736;50.076;8.198;2023-02-26T06:25:04;474.40;;;66.00;;
75156;SDS011;63736;50.076;8.198;2023-02-26T06:27:30;411.85;;;72.55;;
75156;SDS011;63736;50.076;8.198;2023-02-26T06:29:55;460.40;;;69.00;;
75156;SDS011;63736;50.076;8.198;2023-02-26T06:32:20;419.05;;;72.65;;
75156;SDS011;63736;50.076;8.198;2023-02-26T06:34:46;377.73;;;71.40;;
75156;SDS011;63736;50.076;8.198;2023-02-26T06:37:11;371.80;;;70.25;;
75156;SDS011;63736;50.076;8.198;2023-02-26T06:39:36;389.30;;;75.70;;
75156;SDS011;63736;50.076;8.198;2023-02-26T06:42:02;393.23;;;74.60;;
75156;SDS011;63736;50.076;8.198;2023-02-26T06:44:27;455.10;;;69.40;;
75156;SDS011;63736;50.076;8.198;2023-02-26T06:46:53;393.27;;;75.13;;
75156;SDS011;63736;50.076;8.198;2023-02-26T06:49:18;394.80;;;78.53;;
75156;SDS011;63736;50.076;8.198;2023-02-26T06:51:43;453.27;;;76.40;;
75156;SDS011;63736;50.076;8.198;2023-02-26T06:54:08;383.15;;;73.65;;
75156;SDS011;63736;50.076;8.198;2023-02-26T06:58:59;346.07;;;57.67;;
75156;SDS011;63736;50.076;8.198;2023-02-26T07:01:24;457.30;;;71.95;;
75156;SDS011;63736;50.076;8.198;2023-02-26T07:06:16;361.10;;;63.90;;
75156;SDS011;63736;50.076;8.198;2023-02-26T07:11:07;1999.90;;;593.60;;
75156;SDS011;63736;50.076;8.198;2023-02-26T07:15:59;591.50;;;91.40;;
75156;SDS011;63736;50.076;8.198;2023-02-26T07:18:24;1782.10;;;805.80;;
75156;SDS011;63736;50.076;8.198;2023-02-26T07:20:50;1226.20;;;864.65;;
75156;SDS011;63736;50.076;8.198;2023-02-26T07:23:16;1334.00;;;853.00;;
75156;SDS011;63736;50.076;8.198;2023-02-26T07:25:41;1382.10;;;807.20;;
75156;SDS011;63736;50.076;8.198;2023-02-26T07:28:06;1417.87;;;797.27;;
75156;SDS011;63736;50.076;8.198;2023-02-26T07:30:32;1107.60;;;816.40;;
75156;SDS011;63736;50.076;8.198;2023-02-26T07:32:57;1390.53;;;871.83;;
75156;SDS011;63736;50.076;8.198;2023-02-26T07:35:23;1439.70;;;866.15;;
75156;SDS011;63736;50.076;8.198;2023-02-26T07:37:48;1478.57;;;878.23;;
75156;SDS011;63736;50.076;8.198;2023-02-26T07:40:13;1490.63;;;872.73;;
75156;SDS011;63736;50.076;8.198;2023-02-26T07:42:39;1521.50;;;882.13;;
75156;SDS011;63736;50.076;8.198;2023-02-26T07:45:05;1532.60;;;863.65;;
75156;SDS011;63736;50.076;8.198;2023-02-26T07:47:32;1532.22;;;873.60;;
75156;SDS011;63736;50.076;8.198;2023-02-26T07:49:57;1533.87;;;853.00;;
75156;SDS011;63736;50.076;8.198;2023-02-26T07:52:22;1542.17;;;868.20;;
75156;SDS011;63736;50.076;8.198;2023-02-26T07:54:48;1544.27;;;848.70;;
75156;SDS011;63736;50.076;8.198;2023-02-26T07:59:38;1071.60;;;781.80;;
75156;SDS011;63736;50.076;8.198;2023-02-26T08:02:04;1380.85;;;939.25;;
75156;SDS011;63736;50.076;8.198;2023-02-26T08:04:29;1487.45;;;954.45;;
75156;SDS011;63736;50.076;8.198;2023-02-26T08:06:56;1516.78;;;949.50;;
75156;SDS011;63736;50.076;8.198;2023-02-26T08:09:22;1495.73;;;959.17;;
75156;SDS011;63736;50.076;8.198;2023-02-26T08:11:48;1496.23;;;946.97;;
75156;SDS011;63736;50.076;8.198;2023-02-26T08:14:13;1488.73;;;936.93;;
75156;SDS011;63736;50.076;8.198;2023-02-26T08:16:39;1486.90;;;903.70;;
75156;SDS011;63736;50.076;8.198;2023-02-26T08:21:29;1187.10;;;865.60;;
75156;SDS011;63736;50.076;8.198;2023-02-26T08:23:54;1391.47;;;822.07;;
75156;SDS011;63736;50.076;8.198;2023-02-26T08:26:20;1436.70;;;898.93;;
75156;SDS011;63736;50.076;8.198;2023-02-26T08:28:45;1390.40;;;930.70;;
75156;SDS011;63736;50.076;8.198;2023-02-26T08:31:11;1405.45;;;871.83;;
75156;SDS011;63736;50.076;8.198;2023-02-26T08:33:37;1268.77;;;862.97;;
75156;SDS011;63736;50.076;8.198;2023-02-26T08:36:03;1174.72;;;850.97;;
75156;SDS011;63736;50.076;8.198;2023-02-26T08:38:29;1059.05;;;767.65;;
75156;SDS011;63736;50.076;8.198;2023-02-26T08:40:56;1372.93;;;831.93;;
75156;SDS011;63736;50.076;8.198;2023-02-26T08:45:47;923.97;;;562.72;;
75156;SDS011;63736;50.076;8.198;2023-02-26T08:48:12;1299.77;;;830.43;;
75156;SDS011;63736;50.076;8.198;2023-02-26T08:50:38;968.97;;;595.07;;
75156;SDS011;63736;50.076;8.198;2023-02-26T08:53:04;1315.60;;;860.25;;
75156;SDS011;63736;50.076;8.198;2023-02-26T08:55:30;1338.93;;;835.55;;
75156;SDS011;63736;50.076;8.198;2023-02-26T08:57:55;1371.03;;;835.70;;
75156;SDS011;63736;50.076;8.198;2023-02-26T09:00:20;1390.27;;;838.03;;
75156;SDS011;63736;50.076;8.198;2023-02-26T09:02:46;1359.17;;;942.17;;
75156;SDS011;63736;50.076;8.198;2023-02-26T09:05:12;1410.97;;;951.17;;
75156;SDS011;63736;50.076;8.198;2023-02-26T09:10:04;1080.00;;;802.80;;
75156;SDS011;63736;50.076;8.198;2023-02-26T09:12:30;1066.90;;;821.92;;
75156;SDS011;63736;50.076;8.198;2023-02-26T09:14:56;1331.13;;;912.50;;
75156;SDS011;63736;50.076;8.198;2023-02-26T09:17:23;1456.85;;;825.65;;
75156;SDS011;63736;50.076;8.198;2023-02-26T09:19:49;1473.50;;;711.40;;
75156;SDS011;63736;50.076;8.198;2023-02-26T09:22:14;1251.90;;;877.03;;
75156;SDS011;63736;50.076;8.198;2023-02-26T09:24:39;1473.93;;;785.03;;
75156;SDS011;63736;50.076;8.198;2023-02-26T09:27:04;1229.10;;;883.53;;
75156;SDS011;63736;50.076;8.198;2023-02-26T09:31:55;1101.27;;;795.13;;
75156;SDS011;63736;50.076;8.198;2023-02-26T09:36:45;1086.70;;;803.67;;
75156;SDS011;63736;50.076;8.198;2023-02-26T09:39:11;1372.13;;;797.03;;
75156;SDS011;63736;50.076;8.198;2023-02-26T09:41:37;1160.07;;;812.57;;
75156;SDS011;63736;50.076;8.198;2023-02-26T09:44:15;1145.85;;;768.88;;
75156;SDS011;63736;50.076;8.198;2023-02-26T09:49:22;1184.28;;;820.17;;
75156;SDS011;63736;50.076;8.198;2023-02-26T09:52:42;1409.90;;;760.95;;
75156;SDS011;63736;50.076;8.198;2023-02-26T09:55:08;1043.93;;;684.05;;
75156;SDS011;63736;50.076;8.198;2023-02-26T09:57:35;1396.97;;;749.73;;
75156;SDS011;63736;50.076;8.198;2023-02-26T10:05:43;969.10;;;715.97;;
75156;SDS011;63736;50.076;8.198;2023-02-26T10:08:15;1322.07;;;727.63;;
75156;SDS011;63736;50.076;8.198;2023-02-26T10:13:19;1414.78;;;567.83;;
75156;SDS011;63736;50.076;8.198;2023-02-26T10:18:29;763.63;;;647.85;;
75156;SDS011;63736;50.076;8.198;2023-02-26T10:21:00;1132.18;;;929.22;;
75156;SDS011;63736;50.076;8.198;2023-02-26T10:26:10;877.75;;;392.13;;
75156;SDS011;63736;50.076;8.198;2023-02-26T10:31:25;918.10;;;736.70;;
75156;SDS011;63736;50.076;8.198;2023-02-26T10:39:40;939.15;;;786.58;;
75156;SDS011;63736;50.076;8.198;2023-02-26T10:42:19;1207.65;;;753.92;;
75156;SDS011;63736;50.076;8.198;2023-02-26T10:50:11;927.40;;;825.13;;
75156;SDS011;63736;50.076;8.198;2023-02-26T10:57:46;932.55;;;830.45;;
75156;SDS011;63736;50.076;8.198;2023-02-26T11:00:19;1112.25;;;908.58;;
75156;SDS011;63736;50.076;8.198;2023-02-26T11:02:45;1188.03;;;934.10;;
75156;SDS011;63736;50.076;8.198;2023-02-26T11:05:17;1280.88;;;946.75;;
75156;SDS011;63736;50.076;8.198;2023-02-26T11:07:46;1335.90;;;840.80;;
75156;SDS011;63736;50.076;8.198;2023-02-26T11:12:44;948.53;;;840.70;;
75156;SDS011;63736;50.076;8.198;2023-02-26T11:15:17;950.07;;;845.57;;
75156;SDS011;63736;50.076;8.198;2023-02-26T11:17:46;1229.57;;;895.40;;
75156;SDS011;63736;50.076;8.198;2023-02-26T11:20:17;1285.45;;;946.75;;
75156;SDS011;63736;50.076;8.198;2023-02-26T11:23:06;1341.25;;;914.25;;
75156;SDS011;63736;50.076;8.198;2023-02-26T11:25:35;1132.83;;;763.67;;
75156;SDS011;63736;50.076;8.198;2023-02-26T11:31:08;899.72;;;544.28;;
75156;SDS011;63736;50.076;8.198;2023-02-26T11:33:40;1318.07;;;929.97;;
75156;SDS011;63736;50.076;8.198;2023-02-26T11:36:10;332.65;;;42.35;;
75156;SDS011;63736;50.076;8.198;2023-02-26T11:38:38;309.73;;;34.30;;
75156;SDS011;63736;50.076;8.198;2023-02-26T11:41:05;300.98;;;33.10;;
75156;SDS011;63736;50.076;8.198;2023-02-26T11:43:36;327.45;;;43.28;;
75156;SDS011;63736;50.076;8.198;2023-02-26T11:46:05;360.55;;;53.08;;
75156;SDS011;63736;50.076;8.198;2023-02-26T11:48:39;361.15;;;51.55;;
75156;SDS011;63736;50.076;8.198;2023-02-26T11:51:07;369.75;;;56.20;;
75156;SDS011;63736;50.076;8.198;2023-02-26T11:56:21;1046.90;;;220.25;;
75156;SDS011;63736;50.076;8.198;2023-02-26T11:58:50;1145.82;;;912.80;;
75156;SDS011;63736;50.076;8.198;2023-02-26T12:03:44;788.45;;;564.33;;
75156;SDS011;63736;50.076;8.198;2023-02-26T12:06:14;1155.43;;;925.90;;
75156;SDS011;63736;50.076;8.198;2023-02-26T12:08:42;1273.00;;;820.73;;
75156;SDS011;63736;50.076;8.198;2023-02-26T12:30:37;891.05;;;752.70;;
75156;SDS011;63736;50.076;8.198;2023-02-26T12:33:13;884.15;;;776.40;;
75156;SDS011;63736;50.076;8.198;2023-02-26T12:38:50;925.83;;;827.05;;
75156;SDS011;63736;50.076;8.198;2023-02-26T12:41:47;896.43;;;801.17;;
75156;SDS011;63736;50.076;8.198;2023-02-26T12:55:53;782.17;;;326.90;;
75156;SDS011;63736;50.076;8.198;2023-02-26T13:01:03;781.53;;;314.77;;
75156;SDS011;63736;50.076;8.198;2023-02-26T13:03:49;786.97;;;322.85;;
75156;SDS011;63736;50.076;8.198;2023-02-26T13:07:23;973.88;;;817.80;;
75156;SDS011;63736;50.076;8.198;2023-02-26T13:10:02;1034.55;;;901.30;;
75156;SDS011;63736;50.076;8.198;2023-02-26T13:20:29;1228.47;;;957.53;;
75156;SDS011;63736;50.076;8.198;2023-02-26T13:23:00;1230.80;;;951.97;;
75156;SDS011;63736;50.076;8.198;2023-02-26T13:28:19;1002.03;;;859.15;;
75156;SDS011;63736;50.076;8.198;2023-02-26T13:33:18;1048.65;;;767.83;;
75156;SDS011;63736;50.076;8.198;2023-02-26T13:38:16;1027.72;;;807.63;;
75156;SDS011;63736;50.076;8.198;2023-02-26T13:40:48;1228.47;;;649.20;;
75156;SDS011;63736;50.076;8.198;2023-02-26T13:48:33;880.42;;;783.67;;
75156;SDS011;63736;50.076;8.198;2023-02-26T13:54:02;852.63;;;706.27;;
75156;SDS011;63736;50.076;8.198;2023-02-26T13:59:02;1011.23;;;657.97;;
75156;SDS011;63736;50.076;8.198;2023-02-26T14:01:31;1030.32;;;653.90;;
75156;SDS011;63736;50.076;8.198;2023-02-26T14:04:22;1017.50;;;653.90;;
75156;SDS011;63736;50.076;8.198;2023-02-26T14:07:04;1019.28;;;653.92;;
75156;SDS011;63736;50.076;8.198;2023-02-26T14:09:43;1013.33;;;659.40;;
75156;SDS011;63736;50.076;8.198;2023-02-26T14:18:15;1006.42;;;657.72;;
75156;SDS011;63736;50.076;8.198;2023-02-26T14:22:47;1006.78;;;664.60;;
75156;SDS011;63736;50.076;8.198;2023-02-26T14:25:36;1006.13;;;666.17;;
75156;SDS011;63736;50.076;8.198;2023-02-26T14:30:50;1008.30;;;671.78;;
75156;SDS011;63736;50.076;8.198;2023-02-26T14:35:44;985.20;;;667.28;;
75156;SDS011;63736;50.076;8.198;2023-02-26T14:38:28;993.70;;;672.10;;
75156;SDS011;63736;50.076;8.198;2023-02-26T14:43:49;991.17;;;677.83;;
75156;SDS011;63736;50.076;8.198;2023-02-26T14:48:49;965.37;;;670.40;;
75156;SDS011;63736;50.076;8.198;2023-02-26T14:56:44;978.53;;;676.00;;
75156;SDS011;63736;50.076;8.198;2023-02-26T15:08:12;972.73;;;685.73;;
75156;SDS011;63736;50.076;8.198;2023-02-26T15:13:27;948.30;;;709.25;;
75156;SDS011;63736;50.076;8.198;2023-02-26T15:16:38;955.78;;;734.00;;
75156;SDS011;63736;50.076;8.198;2023-02-26T15:19:16;1147.07;;;890.15;;
75156;SDS011;63736;50.076;8.198;2023-02-26T15:24:17;970.30;;;772.33;;
75156;SDS011;63736;50.076;8.198;2023-02-26T15:26:52;1203.60;;;783.00;;
75156;SDS011;63736;50.076;8.198;2023-02-26T15:29:24;1144.07;;;928.88;;
75156;SDS011;63736;50.076;8.198;2023-02-26T15:31:54;1098.95;;;930.63;;
75156;SDS011;63736;50.076;8.198;2023-02-26T15:36:50;1011.27;;;836.47;;
75156;SDS011;63736;50.076;8.198;2023-02-26T15:41:43;945.53;;;841.53;;
75156;SDS011;63736;50.076;8.198;2023-02-26T15:44:15;1184.57;;;711.20;;
75156;SDS011;63736;50.076;8.198;2023-02-26T15:46:46;1130.47;;;930.40;;
75156;SDS011;63736;50.076;8.198;2023-02-26T15:49:18;1008.37;;;844.70;;
75156;SDS011;63736;50.076;8.198;2023-02-26T15:54:17;945.53;;;840.87;;
75156;SDS011;63736;50.076;8.198;2023-02-26T15:59:24;926.05;;;823.17;;
75156;SDS011;63736;50.076;8.198;2023-02-26T16:01:52;942.03;;;826.42;;
75156;SDS011;63736;50.076;8.198;2023-02-26T16:04:19;1179.70;;;865.33;;
75156;SDS011;63736;50.076;8.198;2023-02-26T16:06:47;955.00;;;761.80;;
75156;SDS011;63736;50.076;8.198;2023-02-26T16:09:27;958.33;;;838.08;;
75156;SDS011;63736;50.076;8.198;2023-02-26T16:11:57;1150.45;;;879.08;;
75156;SDS011;63736;50.076;8.198;2023-02-26T16:16:54;964.80;;;809.97;;
75156;SDS011;63736;50.076;8.198;2023-02-26T16:19:30;944.88;;;843.38;;
75156;SDS011;63736;50.076;8.198;2023-02-26T16:22:00;938.85;;;838.70;;
75156;SDS011;63736;50.076;8.198;2023-02-26T16:24:30;943.87;;;844.80;;
75156;SDS011;63736;50.076;8.198;2023-02-26T16:27:00;1136.85;;;738.40;;
75156;SDS011;63736;50.076;8.198;2023-02-26T16:29:31;980.10;;;800.33;;
75156;SDS011;63736;50.076;8.198;2023-02-26T16:32:00;1191.55;;;838.05;;
75156;SDS011;63736;50.076;8.198;2023-02-26T16:34:28;1192.70;;;772.00;;
75156;SDS011;63736;50.076;8.198;2023-02-26T16:37:18;1215.37;;;746.27;;
75156;SDS011;63736;50.076;8.198;2023-02-26T16:39:50;1063.65;;;783.22;;
75156;SDS011;63736;50.076;8.198;2023-02-26T16:42:20;1004.20;;;729.95;;
75156;SDS011;63736;50.076;8.198;2023-02-26T16:50:20;913.95;;;682.72;;
75156;SDS011;63736;50.076;8.198;2023-02-26T16:53:04;1076.13;;;920.13;;
75156;SDS011;63736;50.076;8.198;2023-02-26T16:55:33;1173.53;;;853.53;;
75156;SDS011;63736;50.076;8.198;2023-02-26T16:58:02;1201.50;;;859.83;;
75156;SDS011;63736;50.076;8.198;2023-02-26T17:00:31;1212.40;;;849.13;;
75156;SDS011;63736;50.076;8.198;2023-02-26T17:02:58;1216.25;;;891.53;;
75156;SDS011;63736;50.076;8.198;2023-02-26T17:05:33;1212.45;;;896.28;;
75156;SDS011;63736;50.076;8.198;2023-02-26T17:08:08;1215.30;;;864.22;;
75156;SDS011;63736;50.076;8.198;2023-02-26T17:10:44;1076.43;;;675.00;;
75156;SDS011;63736;50.076;8.198;2023-02-26T17:13:31;1009.53;;;693.65;;
75156;SDS011;63736;50.076;8.198;2023-02-26T17:15:58;971.10;;;670.37;;
75156;SDS011;63736;50.076;8.198;2023-02-26T17:18:26;946.17;;;664.20;;
75156;SDS011;63736;50.076;8.198;2023-02-26T17:20:52;938.00;;;670.35;;
75156;SDS011;63736;50.076;8.198;2023-02-26T17:23:18;930.72;;;679.00;;
75156;SDS011;63736;50.076;8.198;2023-02-26T17:25:47;923.38;;;682.00;;
75156;SDS011;63736;50.076;8.198;2023-02-26T17:28:21;907.80;;;676.10;;
75156;SDS011;63736;50.076;8.198;2023-02-26T17:30:50;906.83;;;669.90;;
75156;SDS011;63736;50.076;8.198;2023-02-26T17:33:16;901.08;;;664.45;;
75156;SDS011;63736;50.076;8.198;2023-02-26T17:35:41;900.03;;;673.17;;
75156;SDS011;63736;50.076;8.198;2023-02-26T17:38:08;885.97;;;671.88;;
75156;SDS011;63736;50.076;8.198;2023-02-26T17:43:03;852.88;;;686.28;;
75156;SDS011;63736;50.076;8.198;2023-02-26T17:45:30;867.40;;;703.90;;
75156;SDS011;63736;50.076;8.198;2023-02-26T17:47:56;863.53;;;710.78;;
75156;SDS011;63736;50.076;8.198;2023-02-26T17:52:54;841.08;;;718.97;;
75156;SDS011;63736;50.076;8.198;2023-02-26T17:55:20;830.45;;;691.10;;
75156;SDS011;63736;50.076;8.198;2023-02-26T17:57:45;828.27;;;681.03;;
75156;SDS011;63736;50.076;8.198;2023-02-26T18:00:12;818.50;;;686.70;;
75156;SDS011;63736;50.076;8.198;2023-02-26T18:05:04;809.00;;;692.33;;
75156;SDS011;63736;50.076;8.198;2023-02-26T18:07:30;983.70;;;875.20;;
75156;SDS011;63736;50.076;8.198;2023-02-26T18:12:21;892.93;;;804.60;;
75156;SDS011;63736;50.076;8.198;2023-02-26T18:17:13;871.22;;;787.20;;
75156;SDS011;63736;50.076;8.198;2023-02-26T18:19:40;1009.45;;;861.80;;
75156;SDS011;63736;50.076;8.198;2023-02-26T18:22:13;1035.22;;;851.42;;
75156;SDS011;63736;50.076;8.198;2023-02-26T18:24:39;1149.32;;;663.88;;
75156;SDS011;63736;50.076;8.198;2023-02-26T18:27:05;1007.25;;;764.15;;
75156;SDS011;63736;50.076;8.198;2023-02-26T18:29:30;934.43;;;831.67;;
75156;SDS011;63736;50.076;8.198;2023-02-26T18:31:56;925.28;;;826.58;;
75156;SDS011;63736;50.076;8.198;2023-02-26T18:34:24;879.67;;;789.08;;
75156;SDS011;63736;50.076;8.198;2023-02-26T18:36:49;777.17;;;610.90;;